You are listening to:
KDED CTAF/Misc - DeLand, Florida, United States

KDED 171810Z AUTO 13005KT 10SM VCTS SCT035 SCT049 SCT100 31/25 A3007 RMK AO2 LTG DSNT E THRU SW T03100250

If stream doesn't start automatically press the play button
If stream stops then reload player then press play